createdAt,value
2023-02-24T00:02:07.244Z,-3.95
2023-02-24T00:04:41.353Z,-3.99
2023-02-24T00:07:10.739Z,-3.99
2023-02-24T00:09:39.356Z,-4.01
2023-02-24T00:12:12.855Z,-4.04
2023-02-24T00:14:54.283Z,-4.05
2023-02-24T00:17:24.209Z,-4.10
2023-02-24T00:19:51.961Z,-4.15
2023-02-24T00:22:20.442Z,-4.12
2023-02-24T00:24:48.201Z,-4.08
2023-02-24T00:27:15.795Z,-4.09
2023-02-24T00:29:45.539Z,-4.07
2023-02-24T00:32:15.003Z,-4.07
2023-02-24T00:34:43.489Z,-4.10
2023-02-24T00:37:12.261Z,-4.13
2023-02-24T00:39:41.995Z,-4.18
2023-02-24T00:42:11.980Z,-4.20
2023-02-24T00:44:45.142Z,-4.15
2023-02-24T00:47:13.077Z,-4.12
2023-02-24T00:49:44.368Z,-4.11
2023-02-24T00:52:17.358Z,-4.14
2023-02-24T00:54:47.924Z,-4.12
2023-02-24T00:57:18.123Z,-4.12
2023-02-24T00:59:51.702Z,-4.16
2023-02-24T01:02:20.156Z,-4.15
2023-02-24T01:04:50.069Z,-4.11
2023-02-24T01:07:17.866Z,-4.14
2023-02-24T01:09:45.546Z,-4.08
2023-02-24T01:12:39.174Z,-4.01
2023-02-24T01:15:25.762Z,-4.00
2023-02-24T01:17:55.878Z,-4.04
2023-02-24T01:20:23.359Z,-4.03
2023-02-24T01:22:53.431Z,-4.07
2023-02-24T01:25:22.694Z,-4.05
2023-02-24T01:27:50.728Z,-4.05
2023-02-24T01:30:18.903Z,-4.06
2023-02-24T01:33:05.055Z,-4.10
2023-02-24T01:35:35.037Z,-4.10
2023-02-24T01:38:02.693Z,-4.10
2023-02-24T01:40:30.380Z,-4.13
2023-02-24T01:42:59.423Z,-4.17
2023-02-24T01:45:36.837Z,-4.13
2023-02-24T01:48:07.128Z,-4.05
2023-02-24T01:50:36.100Z,-3.91
2023-02-24T01:53:10.164Z,-3.73
2023-02-24T01:55:47.516Z,-3.52
2023-02-24T01:58:23.066Z,-3.42
2023-02-24T02:00:51.795Z,-3.31
2023-02-24T02:03:27.373Z,-3.22
2023-02-24T02:06:04.670Z,-3.14
2023-02-24T02:08:36.705Z,-3.11
2023-02-24T02:11:07.117Z,-3.08
2023-02-24T02:14:36.528Z,-3.02
2023-02-24T02:17:07.266Z,-2.98
2023-02-24T02:19:46.756Z,-3.00
2023-02-24T02:22:42.423Z,-2.94
2023-02-24T02:25:40.226Z,-2.95
2023-02-24T02:28:31.826Z,-2.94
2023-02-24T02:32:03.859Z,-2.96
2023-02-24T02:34:57.519Z,-2.98
2023-02-24T02:37:41.598Z,-3.06
2023-02-24T02:40:41.605Z,-3.09
2023-02-24T02:43:42.021Z,-3.17
2023-02-24T02:46:14.965Z,-3.21
2023-02-24T02:48:52.302Z,-3.21
2023-02-24T02:51:33.469Z,-3.32
2023-02-24T02:54:08.077Z,-3.22
2023-02-24T02:56:38.182Z,-3.21
2023-02-24T02:59:05.902Z,-3.18
2023-02-24T03:01:35.962Z,-3.19
2023-02-24T03:04:04.978Z,-3.38
2023-02-24T03:06:34.201Z,-3.25
2023-02-24T03:09:11.532Z,-3.24
2023-02-24T03:11:39.971Z,-3.30
2023-02-24T03:14:12.314Z,-3.21
2023-02-24T03:16:40.387Z,-3.17
2023-02-24T03:19:09.240Z,-3.19
2023-02-24T03:21:45.366Z,-3.18
2023-02-24T03:24:15.578Z,-3.25
2023-02-24T03:26:52.402Z,-3.24
2023-02-24T03:29:30.610Z,-3.32
2023-02-24T03:32:10.968Z,-3.27
2023-02-24T03:35:07.771Z,-3.19
2023-02-24T03:37:37.112Z,-3.23
2023-02-24T03:40:11.934Z,-3.18
2023-02-24T03:42:43.798Z,-3.20
2023-02-24T03:45:11.485Z,-3.20
2023-02-24T03:47:40.777Z,-3.19
2023-02-24T03:50:19.938Z,-3.17
2023-02-24T03:52:59.796Z,-3.19
2023-02-24T03:55:58.883Z,-3.09
2023-02-24T03:58:56.917Z,-3.15
2023-02-24T04:01:44.826Z,-3.05
2023-02-24T04:04:22.007Z,-3.01
2023-02-24T04:07:01.220Z,-2.96
2023-02-24T04:09:33.423Z,-2.92
2023-02-24T04:12:20.082Z,-2.89
2023-02-24T04:15:10.635Z,-2.78
2023-02-24T04:17:39.643Z,-2.74
2023-02-24T04:20:20.903Z,-2.75
2023-02-24T04:23:02.512Z,-2.76
2023-02-24T04:25:31.228Z,-2.74
2023-02-24T04:27:59.837Z,-2.64
2023-02-24T04:30:29.872Z,-2.45
2023-02-24T04:32:57.786Z,-2.53
2023-02-24T04:35:29.843Z,-2.52
2023-02-24T04:37:57.671Z,-2.52
2023-02-24T04:40:26.778Z,-2.45
2023-02-24T04:42:54.682Z,-2.31
2023-02-24T04:45:29.404Z,-2.41
2023-02-24T04:48:01.214Z,-2.42
2023-02-24T04:50:33.818Z,-2.44
2023-02-24T04:53:04.003Z,-2.42
2023-02-24T04:55:34.484Z,-2.28
2023-02-24T04:58:02.482Z,-2.25
2023-02-24T05:00:36.132Z,-2.26
2023-02-24T05:03:04.746Z,-2.08
2023-02-24T05:05:33.695Z,-2.08
2023-02-24T05:08:03.442Z,-2.16
2023-02-24T05:10:35.619Z,-2.18
2023-02-24T05:13:03.733Z,-2.01
2023-02-24T05:15:31.792Z,-1.89
2023-02-24T05:18:00.358Z,-1.98
2023-02-24T05:20:46.735Z,-1.81
2023-02-24T05:23:14.396Z,-1.85
2023-02-24T05:26:02.513Z,-1.82
2023-02-24T05:28:31.871Z,-1.90
2023-02-24T05:31:17.247Z,-2.02
2023-02-24T05:33:46.376Z,-1.78
2023-02-24T05:36:17.340Z,-1.81
2023-02-24T05:38:45.329Z,-1.85
2023-02-24T05:41:22.637Z,-2.02
2023-02-24T05:43:55.065Z,-1.87
2023-02-24T05:46:29.489Z,-1.74
2023-02-24T05:48:58.750Z,-1.71
2023-02-24T05:51:35.532Z,-1.47
2023-02-24T05:54:04.873Z,-1.59
2023-02-24T05:56:34.128Z,-1.59
2023-02-24T05:59:02.365Z,-1.83
2023-02-24T06:01:38.087Z,-1.50
2023-02-24T06:04:06.562Z,-1.30
2023-02-24T06:06:39.094Z,-1.28
2023-02-24T06:09:10.826Z,-1.36
2023-02-24T06:11:40.765Z,-1.47
2023-02-24T06:14:09.386Z,-1.21
2023-02-24T06:16:41.723Z,-1.04
2023-02-24T06:19:10.835Z,-1.36
2023-02-24T06:21:41.421Z,-1.00
2023-02-24T06:24:14.777Z,-0.83
2023-02-24T06:26:49.482Z,-0.80
2023-02-24T06:29:17.747Z,-0.99
2023-02-24T06:31:46.341Z,-0.61
2023-02-24T06:34:21.707Z,-0.80
2023-02-24T06:36:51.403Z,-0.63
2023-02-24T06:39:20.135Z,-0.65
2023-02-24T06:41:50.827Z,-0.48
2023-02-24T06:44:26.036Z,-0.59
2023-02-24T06:46:55.066Z,-0.29
2023-02-24T06:49:24.403Z,-0.25
2023-02-24T06:51:55.314Z,-0.09
2023-02-24T06:54:29.330Z,-0.14
2023-02-24T06:57:16.678Z,0.30
2023-02-24T06:59:46.520Z,0.07
2023-02-24T07:02:19.021Z,0.07
2023-02-24T07:05:01.421Z,0.15
2023-02-24T07:07:29.880Z,0.42
2023-02-24T07:09:58.091Z,0.25
2023-02-24T07:12:26.219Z,0.30
2023-02-24T07:14:56.407Z,0.37
2023-02-24T07:17:26.651Z,0.36
2023-02-24T07:19:54.949Z,0.66
2023-02-24T07:22:25.510Z,0.62
2023-02-24T07:25:01.652Z,0.53
2023-02-24T07:27:31.538Z,0.74
2023-02-24T07:29:59.529Z,0.74
2023-02-24T07:32:28.145Z,0.92
2023-02-24T07:34:59.709Z,0.98
2023-02-24T07:37:38.850Z,0.93
2023-02-24T07:40:08.716Z,1.14
2023-02-24T07:42:39.464Z,1.10
2023-02-24T07:45:08.247Z,1.24
2023-02-24T07:47:38.560Z,1.14
2023-02-24T07:50:14.344Z,1.25
2023-02-24T07:52:47.055Z,1.24
2023-02-24T07:55:15.874Z,1.47
2023-02-24T07:57:48.584Z,1.44
2023-02-24T08:00:19.858Z,1.52
2023-02-24T08:02:50.246Z,1.51
2023-02-24T08:05:18.957Z,1.73
2023-02-24T08:07:50.269Z,1.49
2023-02-24T08:10:25.953Z,1.55
2023-02-24T08:12:56.111Z,1.94
2023-02-24T08:15:25.435Z,2.05
2023-02-24T08:18:00.567Z,1.85
2023-02-24T08:20:49.222Z,1.90
2023-02-24T08:23:19.688Z,2.05
2023-02-24T08:25:47.736Z,2.43
2023-02-24T08:28:17.351Z,2.69
2023-02-24T08:30:48.367Z,2.38
2023-02-24T08:33:38.876Z,2.31
2023-02-24T08:36:06.964Z,2.13
2023-02-24T08:38:40.495Z,2.43
2023-02-24T08:41:18.562Z,2.82
2023-02-24T08:43:48.444Z,2.88
2023-02-24T08:46:26.971Z,2.67
2023-02-24T08:49:01.436Z,2.94
2023-02-24T08:51:34.954Z,2.91
2023-02-24T08:54:11.686Z,2.75
2023-02-24T08:56:43.990Z,2.72
2023-02-24T08:59:32.378Z,2.68
2023-02-24T09:02:22.785Z,2.80
2023-02-24T09:04:53.131Z,2.70
2023-02-24T09:07:22.519Z,2.80
2023-02-24T09:09:51.104Z,3.17
2023-02-24T09:12:26.636Z,3.65
2023-02-24T09:14:58.650Z,3.97
2023-02-24T09:17:50.428Z,3.69
2023-02-24T09:20:27.487Z,4.11
2023-02-24T09:23:05.718Z,4.02
2023-02-24T09:25:49.744Z,3.99
2023-02-24T09:28:27.786Z,3.77
2023-02-24T09:31:01.450Z,4.04
2023-02-24T09:33:41.628Z,3.96
2023-02-24T09:36:28.403Z,3.85
2023-02-24T09:39:08.069Z,3.98
2023-02-24T09:41:54.155Z,4.13
2023-02-24T09:44:34.685Z,4.27
2023-02-24T09:47:40.164Z,3.98
2023-02-24T09:50:14.371Z,3.81
2023-02-24T09:52:45.036Z,4.44
2023-02-24T09:55:25.485Z,4.14
2023-02-24T09:58:17.919Z,4.13
2023-02-24T10:01:21.790Z,4.43
2023-02-24T10:04:23.265Z,4.17
2023-02-24T10:07:03.394Z,4.44
2023-02-24T10:09:37.887Z,4.59
2023-02-24T10:12:13.162Z,4.64
2023-02-24T10:15:17.594Z,4.69
2023-02-24T10:17:57.218Z,4.39
2023-02-24T10:20:44.861Z,4.65
2023-02-24T10:23:33.189Z,5.05
2023-02-24T10:26:22.220Z,5.03
2023-02-24T10:28:54.105Z,4.70
2023-02-24T10:31:30.417Z,4.98
2023-02-24T10:34:15.918Z,4.84
2023-02-24T10:36:51.095Z,4.52
2023-02-24T10:39:25.820Z,4.37
2023-02-24T10:41:58.800Z,4.37
2023-02-24T10:44:36.646Z,4.59
2023-02-24T10:47:21.036Z,5.19
2023-02-24T10:49:57.460Z,5.12
2023-02-24T10:52:37.239Z,5.13
2023-02-24T10:55:29.469Z,4.98
2023-02-24T10:58:06.739Z,4.78
2023-02-24T11:01:01.494Z,4.84
2023-02-24T11:03:42.832Z,5.16
2023-02-24T11:06:31.010Z,5.34
2023-02-24T11:09:18.881Z,5.01
2023-02-24T11:12:07.499Z,4.90
2023-02-24T11:15:09.631Z,4.82
2023-02-24T11:17:51.198Z,5.06
2023-02-24T11:20:48.419Z,5.25
2023-02-24T11:23:27.580Z,5.49
2023-02-24T11:26:04.494Z,5.70
2023-02-24T11:28:50.239Z,5.77
2023-02-24T11:31:22.332Z,5.89
2023-02-24T11:34:29.251Z,6.02
2023-02-24T11:37:15.279Z,5.80
2023-02-24T11:39:55.361Z,6.12
2023-02-24T11:42:27.532Z,6.01
2023-02-24T11:45:26.000Z,5.84
2023-02-24T11:47:59.936Z,6.10
2023-02-24T11:50:47.766Z,6.13
2023-02-24T11:53:42.053Z,5.93
2023-02-24T11:56:38.290Z,6.14
2023-02-24T11:59:25.374Z,6.24
2023-02-24T12:02:04.041Z,6.37
2023-02-24T12:04:37.580Z,6.31
2023-02-24T12:07:11.986Z,6.62
2023-02-24T12:10:10.644Z,6.86
2023-02-24T12:13:22.825Z,6.72
2023-02-24T12:16:11.887Z,6.44
2023-02-24T12:19:00.718Z,7.05
2023-02-24T12:21:38.403Z,6.94
2023-02-24T12:24:12.494Z,6.86
2023-02-24T12:26:48.115Z,6.66
2023-02-24T12:29:21.788Z,6.84
2023-02-24T12:32:05.629Z,6.61
2023-02-24T12:34:47.162Z,6.91
2023-02-24T12:37:18.222Z,6.22
2023-02-24T12:40:02.449Z,6.04
2023-02-24T12:43:04.401Z,6.02
2023-02-24T12:46:08.716Z,6.10
2023-02-24T12:48:59.284Z,6.06
2023-02-24T12:51:47.518Z,5.91
2023-02-24T12:54:46.791Z,5.52
2023-02-24T12:57:27.909Z,5.52
2023-02-24T12:59:58.163Z,5.49
2023-02-24T13:02:52.748Z,5.57
2023-02-24T13:05:25.125Z,5.49
2023-02-24T13:08:01.998Z,5.56
2023-02-24T13:10:47.492Z,5.31
2023-02-24T13:14:01.254Z,5.21
2023-02-24T13:16:33.916Z,5.36
2023-02-24T13:19:22.306Z,5.44
2023-02-24T13:22:32.630Z,5.45
2023-02-24T13:25:14.650Z,5.23
2023-02-24T13:27:43.095Z,5.47
2023-02-24T13:30:14.738Z,5.30
2023-02-24T13:32:45.621Z,5.30
2023-02-24T13:35:16.446Z,5.26
2023-02-24T13:37:45.811Z,5.55
2023-02-24T13:40:29.316Z,5.51
2023-02-24T13:43:01.771Z,5.40
2023-02-24T13:45:37.390Z,5.69
2023-02-24T13:48:42.976Z,5.84
2023-02-24T13:51:34.828Z,5.71
2023-02-24T13:54:11.772Z,5.58
2023-02-24T13:57:20.493Z,5.50
2023-02-24T13:59:51.230Z,5.52
2023-02-24T14:02:21.147Z,5.46
2023-02-24T14:04:53.146Z,5.53
2023-02-24T14:07:34.046Z,5.42
2023-02-24T14:10:25.432Z,5.36
2023-02-24T14:13:06.685Z,5.23
2023-02-24T14:15:36.786Z,5.36
2023-02-24T14:18:05.805Z,5.47
2023-02-24T14:20:35.371Z,5.44
2023-02-24T14:23:20.878Z,5.11
2023-02-24T14:25:49.066Z,5.17
2023-02-24T14:28:23.423Z,5.40
2023-02-24T14:30:58.347Z,5.30
2023-02-24T14:33:31.554Z,5.28
2023-02-24T14:36:33.804Z,5.35
2023-02-24T14:39:04.997Z,5.28
2023-02-24T14:41:34.677Z,5.20
2023-02-24T14:44:17.626Z,5.07
2023-02-24T14:46:47.681Z,4.93
2023-02-24T14:49:22.234Z,4.90
2023-02-24T14:51:55.132Z,5.16
2023-02-24T14:54:30.796Z,5.15
2023-02-24T14:57:06.960Z,4.91
2023-02-24T14:59:50.357Z,4.82
2023-02-24T15:02:38.773Z,4.59
2023-02-24T15:05:09.859Z,4.87
2023-02-24T15:07:39.341Z,4.56
2023-02-24T15:10:07.659Z,4.83
2023-02-24T15:12:46.807Z,4.66
2023-02-24T15:15:23.491Z,4.67
2023-02-24T15:17:57.062Z,4.76
2023-02-24T15:20:40.276Z,4.64
2023-02-24T15:23:26.048Z,4.41
2023-02-24T15:25:54.209Z,4.51
2023-02-24T15:28:33.298Z,4.59
2023-02-24T15:31:11.561Z,4.41
2023-02-24T15:33:41.423Z,4.60
2023-02-24T15:36:17.450Z,4.64
2023-02-24T15:38:51.395Z,4.67
2023-02-24T15:41:19.439Z,4.39
2023-02-24T15:43:50.329Z,4.53
2023-02-24T15:46:18.384Z,4.41
2023-02-24T15:48:48.170Z,4.23
2023-02-24T15:51:29.887Z,4.13
2023-02-24T15:54:01.097Z,4.04
2023-02-24T15:56:29.269Z,4.17
2023-02-24T15:58:59.265Z,4.12
2023-02-24T16:01:27.304Z,4.16
2023-02-24T16:03:58.013Z,4.13
2023-02-24T16:06:26.585Z,4.09
2023-02-24T16:08:54.732Z,4.09
2023-02-24T16:11:25.563Z,4.21
2023-02-24T16:13:55.805Z,4.02
2023-02-24T16:16:25.167Z,4.04
2023-02-24T16:19:00.840Z,4.00
2023-02-24T16:21:29.565Z,3.91
2023-02-24T16:23:58.328Z,3.90
2023-02-24T16:26:26.113Z,3.75
2023-02-24T16:28:55.617Z,3.87
2023-02-24T16:31:26.701Z,3.85
2023-02-24T16:33:56.050Z,4.05
2023-02-24T16:36:24.994Z,4.05
2023-02-24T16:38:53.148Z,3.89
2023-02-24T16:41:21.105Z,3.73
2023-02-24T16:43:51.042Z,3.76
2023-02-24T16:46:23.192Z,3.72
2023-02-24T16:48:54.308Z,3.76
2023-02-24T16:51:22.589Z,3.60
2023-02-24T16:53:50.345Z,3.70
2023-02-24T16:56:18.332Z,3.66
2023-02-24T16:58:47.121Z,3.51
2023-02-24T17:01:23.843Z,3.78
2023-02-24T17:03:52.551Z,3.75
2023-02-24T17:06:22.348Z,3.74
2023-02-24T17:08:51.718Z,3.79
2023-02-24T17:11:21.025Z,3.60
2023-02-24T17:13:50.190Z,3.91
2023-02-24T17:16:21.575Z,3.79
2023-02-24T17:18:50.047Z,3.61
2023-02-24T17:21:18.358Z,3.61
2023-02-24T17:23:46.698Z,3.51
2023-02-24T17:26:15.413Z,3.47
2023-02-24T17:28:45.852Z,3.43
2023-02-24T17:31:16.422Z,3.75
2023-02-24T17:33:44.465Z,3.61
2023-02-24T17:36:12.221Z,3.60
2023-02-24T17:38:40.116Z,3.60
2023-02-24T17:41:08.287Z,3.73
2023-02-24T17:43:36.841Z,3.40
2023-02-24T17:46:07.290Z,3.56
2023-02-24T17:48:36.384Z,3.40
2023-02-24T17:51:16.554Z,3.53
2023-02-24T17:53:44.519Z,3.34
2023-02-24T17:56:12.397Z,3.46
2023-02-24T17:58:40.484Z,3.50
2023-02-24T18:01:08.565Z,3.58
2023-02-24T18:03:37.232Z,3.39
2023-02-24T18:06:13.634Z,3.52
2023-02-24T18:08:43.212Z,3.40
2023-02-24T18:11:17.180Z,3.38
2023-02-24T18:13:51.239Z,3.26
2023-02-24T18:16:20.363Z,3.53
2023-02-24T18:18:50.171Z,3.44
2023-02-24T18:21:17.886Z,3.25
2023-02-24T18:23:46.244Z,3.43
2023-02-24T18:26:15.869Z,3.46
2023-02-24T18:28:44.762Z,3.24
2023-02-24T18:31:18.681Z,3.53
2023-02-24T18:33:47.077Z,3.55
2023-02-24T18:36:15.184Z,3.46
2023-02-24T18:38:43.908Z,3.25
2023-02-24T18:41:16.403Z,3.35
2023-02-24T18:43:49.929Z,3.11
2023-02-24T18:46:18.759Z,3.36
2023-02-24T18:48:47.249Z,3.13
2023-02-24T18:51:17.269Z,3.11
2023-02-24T18:53:45.085Z,3.15
2023-02-24T18:56:23.037Z,3.41
2023-02-24T18:58:52.856Z,3.30
2023-02-24T19:01:25.761Z,3.17
2023-02-24T19:03:53.927Z,3.25
2023-02-24T19:06:22.250Z,3.13
2023-02-24T19:08:55.214Z,3.23
2023-02-24T19:11:27.601Z,3.26
2023-02-24T19:13:56.166Z,3.23
2023-02-24T19:16:24.471Z,3.33
2023-02-24T19:18:55.177Z,3.42
2023-02-24T19:21:23.370Z,3.09
2023-02-24T19:23:51.235Z,3.16
2023-02-24T19:26:21.348Z,3.24
2023-02-24T19:28:49.381Z,3.02
2023-02-24T19:31:22.358Z,3.03
2023-02-24T19:33:54.179Z,3.13
2023-02-24T19:36:22.600Z,3.27
2023-02-24T19:38:50.974Z,2.91
2023-02-24T19:41:18.986Z,3.03
2023-02-24T19:43:47.722Z,3.16
2023-02-24T19:46:16.615Z,3.04
2023-02-24T19:48:44.802Z,2.98
2023-02-24T19:51:17.583Z,2.99
2023-02-24T19:53:46.429Z,3.08
2023-02-24T19:56:16.965Z,3.00
2023-02-24T19:58:45.354Z,3.29
2023-02-24T20:01:15.163Z,3.14
2023-02-24T20:03:43.847Z,3.11
2023-02-24T20:06:22.959Z,3.37
2023-02-24T20:08:51.000Z,3.27
2023-02-24T20:11:19.186Z,2.87
2023-02-24T20:13:47.261Z,3.12
2023-02-24T20:16:17.854Z,3.04
2023-02-24T20:18:47.555Z,3.08
2023-02-24T20:21:17.904Z,2.73
2023-02-24T20:23:45.740Z,2.78
2023-02-24T20:26:16.676Z,2.75
2023-02-24T20:28:45.729Z,2.86
2023-02-24T20:31:16.144Z,2.99
2023-02-24T20:33:44.033Z,2.83
2023-02-24T20:36:14.064Z,3.01
2023-02-24T20:38:42.183Z,3.19
2023-02-24T20:41:10.002Z,2.73
2023-02-24T20:43:39.386Z,2.94
2023-02-24T20:46:14.941Z,2.82
2023-02-24T20:48:42.957Z,2.83
2023-02-24T20:51:11.118Z,2.83
2023-02-24T20:53:54.574Z,2.83
2023-02-24T20:56:33.193Z,2.80
2023-02-24T20:59:05.689Z,2.79
2023-02-24T21:01:34.032Z,2.86
2023-02-24T21:04:01.925Z,2.83
2023-02-24T21:06:29.965Z,2.85
2023-02-24T21:08:58.915Z,2.81
2023-02-24T21:11:26.991Z,2.80
2023-02-24T21:13:55.210Z,2.67
2023-02-24T21:16:27.334Z,2.62
2023-02-24T21:18:56.523Z,2.93
2023-02-24T21:21:24.676Z,2.75
2023-02-24T21:23:53.028Z,2.70
2023-02-24T21:26:21.041Z,2.95
2023-02-24T21:28:55.577Z,2.86
2023-02-24T21:31:25.190Z,2.64
2023-02-24T21:33:53.861Z,2.90
2023-02-24T21:36:24.520Z,2.97
2023-02-24T21:38:53.889Z,3.00
2023-02-24T21:41:21.608Z,2.86
2023-02-24T21:43:52.152Z,2.78
2023-02-24T21:46:21.232Z,2.68
2023-02-24T21:48:53.789Z,2.88
2023-02-24T21:51:24.929Z,3.07
2023-02-24T21:53:55.287Z,3.25
2023-02-24T21:56:28.275Z,3.04
2023-02-24T21:59:06.731Z,3.02
2023-02-24T22:01:42.163Z,3.11
2023-02-24T22:04:12.280Z,2.96
2023-02-24T22:06:42.352Z,2.88
2023-02-24T22:09:12.566Z,2.95
2023-02-24T22:11:41.915Z,2.91
2023-02-24T22:14:11.107Z,3.08
2023-02-24T22:16:40.127Z,3.10
2023-02-24T22:19:07.927Z,2.98
2023-02-24T22:21:36.580Z,3.32
2023-02-24T22:24:04.612Z,3.24
2023-02-24T22:26:33.392Z,3.12
2023-02-24T22:29:01.500Z,3.09
2023-02-24T22:31:31.548Z,3.22
2023-02-24T22:33:59.464Z,3.28
2023-02-24T22:36:31.905Z,3.30
2023-02-24T22:39:00.486Z,3.39
2023-02-24T22:41:31.428Z,3.44
2023-02-24T22:43:59.673Z,3.37
2023-02-24T22:46:32.387Z,3.31
2023-02-24T22:49:00.456Z,3.51
2023-02-24T22:51:28.370Z,3.32
2023-02-24T22:53:58.246Z,3.35
2023-02-24T22:56:27.017Z,3.44
2023-02-24T22:58:55.062Z,3.50
2023-02-24T23:01:28.290Z,3.29
2023-02-24T23:03:56.544Z,3.41
2023-02-24T23:06:27.466Z,3.41
2023-02-24T23:08:55.409Z,3.32
2023-02-24T23:11:25.521Z,3.44
2023-02-24T23:13:54.320Z,3.37
2023-02-24T23:16:32.421Z,3.47
2023-02-24T23:19:01.451Z,3.52
2023-02-24T23:21:34.374Z,3.46
2023-02-24T23:24:04.235Z,3.42
2023-02-24T23:26:38.438Z,3.77
2023-02-24T23:29:06.477Z,3.66
2023-02-24T23:31:34.287Z,3.76
2023-02-24T23:34:07.277Z,3.57
2023-02-24T23:36:37.644Z,3.51
2023-02-24T23:39:06.126Z,3.62
2023-02-24T23:41:35.523Z,3.73
2023-02-24T23:44:05.204Z,3.64
2023-02-24T23:46:34.181Z,3.75
2023-02-24T23:49:05.178Z,3.91
2023-02-24T23:51:47.549Z,3.73
2023-02-24T23:54:20.599Z,3.78
2023-02-24T23:56:48.525Z,3.66
2023-02-24T23:59:21.852Z,3.51
